createdAt,value
2022-09-07T00:00:53.652Z,2.23
2022-09-07T00:05:55.965Z,1.93
2022-09-07T00:11:00.197Z,1.60
2022-09-07T00:16:06.557Z,1.87
2022-09-07T00:21:10.220Z,2.03
2022-09-07T00:26:14.447Z,1.70
2022-09-07T00:31:20.456Z,2.53
2022-09-07T00:36:22.785Z,1.63
2022-09-07T00:41:24.761Z,1.60
2022-09-07T00:46:30.228Z,1.60
2022-09-07T00:51:36.910Z,1.40
2022-09-07T00:56:43.554Z,1.97
2022-09-07T01:01:47.251Z,1.60
2022-09-07T01:06:49.796Z,1.80
2022-09-07T01:11:55.364Z,1.80
2022-09-07T01:17:09.567Z,1.73
2022-09-07T01:22:34.571Z,1.60
2022-09-07T01:28:04.461Z,1.53
2022-09-07T01:33:28.403Z,1.50
2022-09-07T01:38:36.269Z,1.50
2022-09-07T01:43:47.187Z,1.57
2022-09-07T01:48:52.529Z,1.67
2022-09-07T01:53:58.261Z,1.50
2022-09-07T01:59:04.342Z,1.50
2022-09-07T02:04:10.721Z,1.40
2022-09-07T02:09:19.104Z,1.70
2022-09-07T02:14:26.172Z,1.40
2022-09-07T02:19:33.941Z,1.47
2022-09-07T02:24:39.829Z,1.50
2022-09-07T02:29:43.692Z,1.63
2022-09-07T02:34:46.008Z,1.57
2022-09-07T02:39:48.163Z,1.37
2022-09-07T02:44:51.846Z,1.67
2022-09-07T02:50:07.586Z,1.37
2022-09-07T02:55:19.408Z,1.30
2022-09-07T03:00:23.049Z,1.60
2022-09-07T03:05:33.144Z,1.57
2022-09-07T03:10:38.126Z,1.60
2022-09-07T03:15:41.719Z,1.40
2022-09-07T03:20:43.867Z,1.27
2022-09-07T03:25:47.567Z,1.60
2022-09-07T03:30:51.400Z,1.40
2022-09-07T03:36:01.310Z,1.10
2022-09-07T03:41:05.650Z,1.50
2022-09-07T03:46:09.937Z,1.30
2022-09-07T03:51:13.456Z,1.30
2022-09-07T03:56:18.456Z,1.33
2022-09-07T04:01:24.925Z,1.37
2022-09-07T04:06:26.785Z,1.60
2022-09-07T04:11:28.854Z,1.30
2022-09-07T04:16:32.434Z,1.27
2022-09-07T04:21:34.440Z,1.17
2022-09-07T04:26:36.634Z,1.73
2022-09-07T04:31:39.850Z,1.30
2022-09-07T04:36:42.011Z,1.70
2022-09-07T04:41:43.796Z,1.40
2022-09-07T04:46:47.827Z,1.27
2022-09-07T04:51:50.000Z,1.87
2022-09-07T04:56:51.894Z,1.70
2022-09-07T05:01:55.101Z,1.60
2022-09-07T05:06:56.885Z,1.80
2022-09-07T05:11:58.691Z,1.57
2022-09-07T05:17:02.075Z,1.30
2022-09-07T05:22:04.140Z,1.60
2022-09-07T05:27:06.459Z,1.50
2022-09-07T05:32:11.913Z,1.60
2022-09-07T05:37:14.042Z,1.80
2022-09-07T05:42:16.202Z,1.73
2022-09-07T05:47:19.736Z,1.73
2022-09-07T05:52:22.125Z,1.90
2022-09-07T05:57:23.914Z,1.87
2022-09-07T06:02:27.517Z,1.70
2022-09-07T06:07:29.542Z,1.87
2022-09-07T06:12:31.786Z,1.70
2022-09-07T06:17:35.039Z,1.90
2022-09-07T06:22:37.281Z,2.23
2022-09-07T06:27:39.032Z,2.17
2022-09-07T06:37:44.887Z,2.10
2022-09-07T06:42:46.782Z,2.23
2022-09-07T06:47:53.918Z,2.00
2022-09-07T06:58:19.030Z,2.00
2022-09-07T07:03:22.809Z,2.17
2022-09-07T07:08:26.783Z,2.20
2022-09-07T07:13:29.377Z,2.63
2022-09-07T07:18:33.621Z,2.50
2022-09-07T07:23:36.046Z,2.53
2022-09-07T07:34:02.166Z,2.33
2022-09-07T07:39:04.527Z,2.40
2022-09-07T07:44:06.315Z,2.83
2022-09-07T07:49:10.199Z,2.40
2022-09-07T07:54:11.929Z,2.57
2022-09-07T07:59:15.786Z,2.60
2022-09-07T08:04:19.320Z,2.43
2022-09-07T08:09:21.073Z,2.63
2022-09-07T08:14:22.892Z,2.80
2022-09-07T08:19:26.196Z,2.67
2022-09-07T08:24:28.214Z,2.50
2022-09-07T08:29:33.495Z,2.87
2022-09-07T08:34:38.098Z,2.70
2022-09-07T08:39:39.813Z,3.17
2022-09-07T08:44:47.811Z,3.50
2022-09-07T08:49:55.531Z,2.80
2022-09-07T08:55:02.225Z,2.67
2022-09-07T09:00:07.702Z,3.35
2022-09-07T09:05:24.500Z,3.53
2022-09-07T09:10:34.622Z,3.50
2022-09-07T09:15:48.171Z,3.78
2022-09-07T09:20:54.588Z,3.70
2022-09-07T09:25:59.284Z,3.40
2022-09-07T09:31:01.497Z,3.38
2022-09-07T09:36:24.130Z,2.85
2022-09-07T09:41:36.243Z,2.80
2022-09-07T09:46:38.428Z,3.55
2022-09-07T10:07:57.816Z,4.18
2022-09-07T10:12:59.698Z,3.95
2022-09-07T10:18:03.437Z,4.00
2022-09-07T10:23:20.616Z,3.60
2022-09-07T10:28:24.254Z,4.00
2022-09-07T10:33:33.535Z,3.83
2022-09-07T10:38:43.040Z,4.57
2022-09-07T10:43:47.086Z,4.32
2022-09-07T10:49:02.148Z,4.43
2022-09-07T10:54:30.535Z,4.13
2022-09-07T11:05:18.564Z,4.60
2022-09-07T11:10:29.725Z,4.28
2022-09-07T11:15:35.572Z,4.40
2022-09-07T11:20:43.102Z,3.78
2022-09-07T11:25:54.633Z,4.38
2022-09-07T11:31:00.827Z,4.25
2022-09-07T11:36:12.043Z,4.35
2022-09-07T11:41:28.370Z,4.30
2022-09-07T11:46:36.747Z,4.43
2022-09-07T11:51:42.011Z,4.60
2022-09-07T11:56:52.241Z,4.15
2022-09-07T12:02:13.636Z,4.28
2022-09-07T12:07:39.308Z,4.30
2022-09-07T12:13:00.629Z,4.65
2022-09-07T12:18:13.991Z,4.53
2022-09-07T12:23:24.496Z,4.30
2022-09-07T12:28:59.785Z,4.80
2022-09-07T12:34:35.192Z,4.47
2022-09-07T12:39:38.431Z,4.10
2022-09-07T12:44:40.408Z,4.50
2022-09-07T12:50:20.398Z,4.75
2022-09-07T13:01:28.273Z,4.38
2022-09-07T13:07:04.064Z,3.85
2022-09-07T13:17:56.206Z,4.13
2022-09-07T13:23:17.974Z,4.05
2022-09-07T13:28:52.329Z,4.25
2022-09-07T13:33:54.315Z,4.32
2022-09-07T13:38:56.915Z,4.55
2022-09-07T13:44:03.162Z,4.18
2022-09-07T13:49:15.355Z,4.35
2022-09-07T13:54:25.911Z,4.40
2022-09-07T13:59:33.842Z,4.10
2022-09-07T14:04:41.815Z,4.35
2022-09-07T14:09:43.529Z,4.35
2022-09-07T14:14:47.011Z,4.28
2022-09-07T14:19:50.279Z,4.57
2022-09-07T14:24:54.387Z,4.60
2022-09-07T14:30:24.812Z,4.07
2022-09-07T14:35:28.715Z,4.00
2022-09-07T14:40:30.772Z,4.18
2022-09-07T14:45:35.078Z,4.18
2022-09-07T14:50:37.044Z,4.15
2022-09-07T14:55:40.829Z,4.00
2022-09-07T15:00:46.124Z,3.65
2022-09-07T15:05:48.798Z,4.22
2022-09-07T15:16:28.100Z,4.10
2022-09-07T15:21:32.292Z,4.13
2022-09-07T15:32:04.771Z,4.20
2022-09-07T15:38:00.968Z,4.30
2022-09-07T15:47:53.407Z,4.57
2022-09-07T15:52:55.291Z,4.45
2022-09-07T15:58:10.672Z,4.20
2022-09-07T16:03:15.279Z,4.15
2022-09-07T16:08:25.100Z,4.50
2022-09-07T16:13:31.497Z,4.15
2022-09-07T16:18:38.112Z,4.75
2022-09-07T16:23:42.469Z,4.35
2022-09-07T16:28:46.549Z,4.00
2022-09-07T16:33:49.702Z,4.25
2022-09-07T16:38:55.820Z,4.05
2022-09-07T16:43:58.300Z,4.18
2022-09-07T16:49:04.511Z,4.65
2022-09-07T16:54:08.974Z,4.82
2022-09-07T16:59:12.785Z,7.38
2022-09-07T17:04:15.998Z,5.25
2022-09-07T17:09:17.900Z,4.47
2022-09-07T17:14:19.890Z,4.00
2022-09-07T17:19:30.416Z,3.55
2022-09-07T17:24:32.728Z,3.20
2022-09-07T17:29:37.109Z,3.30
2022-09-07T17:34:41.049Z,3.53
2022-09-07T17:39:42.962Z,3.03
2022-09-07T17:44:46.318Z,2.60
2022-09-07T17:49:49.360Z,2.75
2022-09-07T17:54:51.081Z,2.30
2022-09-07T18:05:16.173Z,2.30
2022-09-07T18:10:18.535Z,2.33
2022-09-07T18:15:20.443Z,2.25
2022-09-07T18:20:24.572Z,2.00
2022-09-07T18:25:27.981Z,2.30
2022-09-07T18:30:29.787Z,2.10
2022-09-07T18:35:33.179Z,2.05
2022-09-07T18:40:38.405Z,2.73
2022-09-07T18:45:40.339Z,2.50
2022-09-07T18:50:43.395Z,2.28
2022-09-07T18:55:45.128Z,2.63
2022-09-07T19:00:47.602Z,2.73
2022-09-07T19:05:57.144Z,3.00
2022-09-07T19:11:06.912Z,3.20
2022-09-07T19:16:11.017Z,3.03
2022-09-07T19:21:16.939Z,3.03
2022-09-07T19:26:18.967Z,3.50
2022-09-07T19:31:21.560Z,3.50
2022-09-07T19:36:24.954Z,3.50
2022-09-07T19:41:27.936Z,3.30
2022-09-07T19:46:29.817Z,3.73
2022-09-07T19:51:36.737Z,3.80
2022-09-07T19:56:40.046Z,4.20
2022-09-07T20:01:41.859Z,3.80
2022-09-07T20:06:46.312Z,4.40
2022-09-07T20:11:48.567Z,3.90
2022-09-07T20:16:50.460Z,3.73
2022-09-07T20:21:53.762Z,4.10
2022-09-07T20:26:55.894Z,4.57
2022-09-07T20:31:59.088Z,4.00
2022-09-07T20:37:02.719Z,4.47
2022-09-07T20:42:05.112Z,4.30
2022-09-07T20:47:07.582Z,4.57
2022-09-07T20:52:11.017Z,3.87
2022-09-07T20:57:13.568Z,4.00
2022-09-07T21:02:16.734Z,3.87
2022-09-07T21:07:21.397Z,4.10
2022-09-07T21:12:25.317Z,3.57
2022-09-07T21:17:28.302Z,4.17
2022-09-07T21:22:33.258Z,4.17
2022-09-07T21:27:38.934Z,4.00
2022-09-07T21:32:41.678Z,5.13
2022-09-07T21:37:46.260Z,4.47
2022-09-07T21:42:51.525Z,4.60
2022-09-07T21:47:53.785Z,4.13
2022-09-07T21:52:58.056Z,4.30
2022-09-07T21:58:01.016Z,4.40
2022-09-07T22:03:03.958Z,4.60
2022-09-07T22:08:08.928Z,3.97
2022-09-07T22:13:12.785Z,4.57
2022-09-07T22:18:15.886Z,5.20
2022-09-07T22:23:20.363Z,4.63
2022-09-07T22:28:22.507Z,4.53
2022-09-07T22:33:25.184Z,4.40
2022-09-07T22:38:29.443Z,4.77
2022-09-07T22:43:31.478Z,5.00
2022-09-07T22:48:33.818Z,4.63
2022-09-07T22:53:40.707Z,4.70
2022-09-07T22:58:46.173Z,3.83
2022-09-07T23:03:49.564Z,4.60
2022-09-07T23:08:56.073Z,4.50
2022-09-07T23:14:02.383Z,3.90
2022-09-07T23:19:04.569Z,4.07
2022-09-07T23:24:12.039Z,4.17
2022-09-07T23:29:15.797Z,3.80
2022-09-07T23:34:18.209Z,4.67
2022-09-07T23:39:22.121Z,3.73
2022-09-07T23:44:24.468Z,3.47
2022-09-07T23:49:27.108Z,3.60
2022-09-07T23:54:31.266Z,3.77
2022-09-07T23:59:33.716Z,3.53
